KDEN

Denver International Airport

Denver, Colorado, USA
KDEN 182340Z 1900/2006 01014KT P6SM FEW050 BKN090 FM190200 30006KT P6SM FEW050 SCT110 FM190400 25005KT P6SM FEW120 FM190700 22008KT P6SM FEW070 FEW120 FM191900 29010KT P6SM FEW120 SCT220 FM200200 22009KT P6SM SCT220
Issued Valid From Valid To
Jan-18 @ 23:40 UTC
(3 hours ago)
Jan-19 @ 00:00 UTC
(2 hours ago)
Jan-20 @ 06:00 UTC
(-1 days ago)
Expired Click to View Jan-19 @ 00:00 to Jan-19 @ 02:00
KDEN 182340Z 1900/2006 01014KT P6SM FEW050 BKN090
Wind Visibility Clouds
10° at 14 knots Greater than 6 miles
  • Few at 5,000' AGL
  • Broken at 9,000' AGL
From Jan-19 @ 02:00 to Jan-19 @ 04:00
FM190200 30006KT P6SM FEW050 SCT110
Wind Visibility Clouds
300° at 6 knots Greater than 6 miles
  • Few at 5,000' AGL
  • Scattered at 11,000' AGL
From Jan-19 @ 04:00 to Jan-19 @ 07:00
FM190400 25005KT P6SM FEW120
Wind Visibility Clouds
250° at 5 knots Greater than 6 miles
  • Few at 12,000' AGL
From Jan-19 @ 07:00 to Jan-19 @ 19:00
FM190700 22008KT P6SM FEW070 FEW120
Wind Visibility Clouds
220° at 8 knots Greater than 6 miles
  • Few at 7,000' AGL
  • Few at 12,000' AGL
From Jan-19 @ 19:00 to Jan-20 @ 02:00
FM191900 29010KT P6SM FEW120 SCT220
Wind Visibility Clouds
290° at 10 knots Greater than 6 miles
  • Few at 12,000' AGL
  • Scattered at 22,000' AGL
From Jan-20 @ 02:00 to Jan-20 @ 06:00
FM200200 22009KT P6SM SCT220
Wind Visibility Clouds
220° at 9 knots Greater than 6 miles
  • Scattered at 22,000' AGL
KDEN 182340Z 1900/2006 01014KT P6SM FEW050 BKN090 FM190200 30006KT P6SM FEW050 SCT110 FM190400 25005KT P6SM FEW120 FM190700 22008KT P6SM FEW070 FEW120 FM191900 29010KT P6SM FEW120 SCT220 FM200200 22009KT P6SM SCT220
Issued Jan-18 @ 23:40 UTC
(3 hours ago)
Valid From Jan-19 @ 00:00 UTC
(2 hours ago)
Valid To Jan-20 @ 06:00 UTC
(-1 days ago)
Jan-19 @ 00:00 - Jan-19 @ 02:00
Wind Visibility
10° at 14 knots Greater than 6 miles
Clouds
  • Few at 5,000' AGL
  • Broken at 9,000' AGL
From Jan-19 @ 02:00 - Jan-19 @ 04:00
Wind Visibility
300° at 6 knots Greater than 6 miles
Clouds
  • Few at 5,000' AGL
  • Scattered at 11,000' AGL
From Jan-19 @ 04:00 - Jan-19 @ 07:00
Wind Visibility
250° at 5 knots Greater than 6 miles
Clouds
  • Few at 12,000' AGL
From Jan-19 @ 07:00 - Jan-19 @ 19:00
Wind Visibility
220° at 8 knots Greater than 6 miles
Clouds
  • Few at 7,000' AGL
  • Few at 12,000' AGL
From Jan-19 @ 19:00 - Jan-20 @ 02:00
Wind Visibility
290° at 10 knots Greater than 6 miles
Clouds
  • Few at 12,000' AGL
  • Scattered at 22,000' AGL
From Jan-20 @ 02:00 - Jan-20 @ 06:00
Wind Visibility
220° at 9 knots Greater than 6 miles
Clouds
  • Scattered at 22,000' AGL